Time;durP1;ratioP1;P1;durP2;ratioP2;P2;SDS_P1;SDS_P2;PMS_P1;PMS_P2;Temp;Humidity;BMP_temperature;BMP_pressure;BME280_temperature;BME280_humidity;BME280_pressure;Samples;Min_cycle;Max_cycle;Signal;HPM_P1;HPM_P2
2022/12/05 00:00:53;;;;;;;36.20;25.65;;;4.60;99.90;;;;;;5056232;28;20453;-74
2022/12/05 00:03:19;;;;;;;37.60;25.52;;;4.60;99.90;;;;;;5055637;28;20338;-74
2022/12/05 00:05:45;;;;;;;35.03;25.38;;;4.60;99.90;;;;;;5056112;28;20037;-73
2022/12/05 00:08:10;;;;;;;34.83;25.83;;;4.60;99.90;;;;;;5056246;28;20108;-73
2022/12/05 00:10:37;;;;;;;40.88;27.35;;;4.60;99.90;;;;;;5056456;28;20130;-74
2022/12/05 00:13:03;;;;;;;33.38;24.40;;;4.70;99.90;;;;;;5056466;28;20122;-73
2022/12/05 00:15:31;;;;;;;37.90;26.13;;;4.60;99.90;;;;;;5056125;28;20473;-73
2022/12/05 00:17:57;;;;;;;38.40;26.95;;;4.70;99.90;;;;;;5056064;28;20045;-73
2022/12/05 00:20:23;;;;;;;36.10;26.45;;;4.70;99.90;;;;;;5055040;28;20052;-74
2022/12/05 00:22:48;;;;;;;36.65;26.65;;;4.70;99.90;;;;;;5037863;28;20055;-74
2022/12/05 00:25:14;;;;;;;38.45;25.40;;;4.70;99.90;;;;;;5056404;28;20037;-74
2022/12/05 00:27:39;;;;;;;38.40;27.45;;;4.70;99.90;;;;;;5056156;28;20053;-73
2022/12/05 00:30:06;;;;;;;36.67;25.73;;;4.70;99.90;;;;;;5056037;28;20442;-74
2022/12/05 00:32:31;;;;;;;34.88;25.90;;;4.70;99.90;;;;;;5056015;28;20491;-73
2022/12/05 00:34:57;;;;;;;35.30;26.55;;;4.80;99.90;;;;;;5037547;28;20068;-74
2022/12/05 00:37:26;;;;;;;35.72;26.08;;;4.80;99.90;;;;;;5055628;28;20075;-74
2022/12/05 00:39:51;;;;;;;35.78;25.45;;;4.80;99.90;;;;;;5055902;28;20510;-73
2022/12/05 00:42:17;;;;;;;37.28;27.17;;;4.80;99.90;;;;;;5074573;28;20052;-73
2022/12/05 00:44:43;;;;;;;39.95;28.10;;;4.80;99.90;;;;;;5074845;28;20480;-74
2022/12/05 00:47:08;;;;;;;39.85;27.40;;;4.90;99.90;;;;;;5075689;28;20128;-74
2022/12/05 00:49:34;;;;;;;37.88;28.23;;;5.20;99.90;;;;;;5075403;28;20072;-73
2022/12/05 00:51:59;;;;;;;40.83;28.35;;;4.90;99.90;;;;;;5074637;28;20051;-73
2022/12/05 00:54:25;;;;;;;41.45;28.60;;;4.90;99.90;;;;;;5075563;28;20032;-74
2022/12/05 00:56:55;;;;;;;43.15;29.90;;;5.00;99.90;;;;;;5075528;28;20119;-73
2022/12/05 00:59:21;;;;;;;47.25;30.23;;;4.90;99.90;;;;;;5075449;28;20041;-73
2022/12/05 01:01:48;;;;;;;42.17;29.85;;;5.00;99.90;;;;;;5075380;28;20044;-73
2022/12/05 01:04:27;;;;;;;43.38;30.33;;;5.10;99.90;;;;;;5075188;28;20072;-73
2022/12/05 01:06:55;;;;;;;40.15;28.65;;;5.00;99.90;;;;;;5074632;28;20348;-74
2022/12/05 01:09:21;;;;;;;43.22;30.83;;;5.10;99.90;;;;;;5075508;28;20039;-73
2022/12/05 01:11:48;;;;;;;43.92;28.70;;;5.00;99.90;;;;;;5075507;28;20041;-73
2022/12/05 01:14:18;;;;;;;41.78;30.90;;;5.00;99.90;;;;;;5075124;28;20380;-73
2022/12/05 01:16:46;;;;;;;42.00;29.52;;;5.20;99.90;;;;;;5075225;28;20064;-73
2022/12/05 01:19:22;;;;;;;42.28;30.17;;;5.00;99.90;;;;;;5074795;28;20111;-73
2022/12/05 01:21:49;;;;;;;42.20;29.73;;;5.00;99.90;;;;;;5075323;28;20037;-73
2022/12/05 01:24:15;;;;;;;43.67;30.48;;;5.00;99.90;;;;;;5075340;28;20044;-73
2022/12/05 01:26:41;;;;;;;40.72;29.52;;;5.10;99.90;;;;;;5073851;28;20428;-74
2022/12/05 01:29:08;;;;;;;45.20;31.50;;;5.00;99.90;;;;;;5074165;28;20048;-74
2022/12/05 01:31:35;;;;;;;43.42;31.27;;;5.10;99.90;;;;;;5075202;28;20090;-74
2022/12/05 01:34:04;;;;;;;42.97;30.38;;;5.20;99.90;;;;;;5074708;28;20052;-74
2022/12/05 01:36:30;;;;;;;44.75;32.25;;;5.10;99.90;;;;;;5075099;28;20040;-74
2022/12/05 01:38:56;;;;;;;49.13;31.70;;;5.10;99.90;;;;;;5074999;28;20037;-74
2022/12/05 01:41:28;;;;;;;42.95;30.30;;;5.10;99.90;;;;;;5062367;28;20049;-74
2022/12/05 01:44:00;;;;;;;50.40;32.78;;;5.10;99.90;;;;;;5055249;28;20052;-74
2022/12/05 01:46:29;;;;;;;44.03;31.48;;;5.10;99.90;;;;;;5054800;28;20045;-75
2022/12/05 01:49:08;;;;;;;43.60;31.15;;;5.10;99.90;;;;;;5055006;28;20346;-74
2022/12/05 01:51:35;;;;;;;45.38;30.75;;;5.10;99.90;;;;;;5054756;28;20045;-74
2022/12/05 01:54:02;;;;;;;42.85;31.23;;;5.10;99.90;;;;;;5055587;28;20108;-74
2022/12/05 01:56:31;;;;;;;43.22;30.20;;;5.20;99.90;;;;;;5055096;28;20052;-74
2022/12/05 01:59:00;;;;;;;40.53;29.50;;;5.10;99.90;;;;;;5054856;28;20066;-73
2022/12/05 02:01:25;;;;;;;46.80;30.02;;;5.10;99.90;;;;;;5054048;28;20450;-73
2022/12/05 02:03:56;;;;;;;39.30;28.35;;;5.20;99.90;;;;;;5037102;28;20059;-74
2022/12/05 02:06:24;;;;;;;38.00;27.00;;;5.40;99.90;;;;;;5054773;28;20063;-74
2022/12/05 02:08:51;;;;;;;38.28;27.08;;;5.20;99.90;;;;;;5054766;28;20124;-73
2022/12/05 02:11:18;;;;;;;38.13;27.23;;;5.50;99.90;;;;;;5054579;28;20041;-74
2022/12/05 02:14:10;;;;;;;37.10;26.83;;;5.20;99.90;;;;;;5054773;28;20164;-74
2022/12/05 02:16:48;;;;;;;35.40;25.52;;;5.30;99.90;;;;;;5054495;28;20052;-73
2022/12/05 02:19:28;;;;;;;32.47;25.52;;;5.20;99.90;;;;;;5054850;28;20049;-73
2022/12/05 02:22:34;;;;;;;33.78;23.77;;;5.30;99.90;;;;;;5037258;28;20528;-73
2022/12/05 02:25:02;;;;;;;35.30;24.75;;;5.30;99.90;;;;;;5054215;28;20068;-74
2022/12/05 02:27:49;;;;;;;32.70;24.73;;;5.30;99.90;;;;;;5036891;28;20094;-73
2022/12/05 02:30:21;;;;;;;30.85;23.10;;;5.30;99.90;;;;;;5036959;28;20049;-74
2022/12/05 02:33:03;;;;;;;28.70;22.63;;;5.30;99.90;;;;;;5054799;28;20448;-73
2022/12/05 02:35:58;;;;;;;29.63;22.58;;;5.30;99.90;;;;;;5054428;28;20103;-73
2022/12/05 02:38:23;;;;;;;28.67;21.30;;;5.30;99.90;;;;;;5036960;28;20060;-73
2022/12/05 02:41:01;;;;;;;29.58;21.92;;;5.40;99.90;;;;;;5051782;28;20384;-73
2022/12/05 02:43:37;;;;;;;27.63;21.25;;;5.40;99.90;;;;;;5078342;28;20097;-73
2022/12/05 02:46:12;;;;;;;33.88;21.85;;;5.40;99.90;;;;;;5078066;28;20036;-73
2022/12/05 02:48:39;;;;;;;29.30;21.38;;;5.40;99.90;;;;;;5060360;28;20059;-74
2022/12/05 02:51:08;;;;;;;29.75;21.45;;;5.40;99.90;;;;;;5078269;28;20409;-73
2022/12/05 02:53:35;;;;;;;29.40;22.02;;;5.30;99.90;;;;;;5078142;28;20441;-73
2022/12/05 02:56:01;;;;;;;32.30;22.95;;;5.30;99.90;;;;;;5077718;28;20072;-73
2022/12/05 02:58:33;;;;;;;30.15;21.98;;;5.30;99.90;;;;;;5076743;28;20048;-73
2022/12/05 03:00:59;;;;;;;31.02;19.90;;;5.40;99.90;;;;;;5077866;28;20360;-73
2022/12/05 03:03:25;;;;;;;28.70;20.90;;;5.30;99.90;;;;;;5077946;28;20391;-74
2022/12/05 03:06:03;;;;;;;31.05;22.83;;;5.30;99.90;;;;;;5076714;28;20048;-74
2022/12/05 03:08:35;;;;;;;28.10;21.90;;;5.30;99.90;;;;;;5077823;28;20070;-74
2022/12/05 03:11:02;;;;;;;28.75;22.10;;;5.30;99.90;;;;;;5076329;28;20041;-74
2022/12/05 03:13:42;;;;;;;30.77;22.80;;;5.30;99.90;;;;;;5077778;28;20080;-73
2022/12/05 03:16:17;;;;;;;27.83;21.52;;;5.30;99.90;;;;;;5077818;28;20048;-73
2022/12/05 03:18:48;;;;;;;26.55;20.40;;;5.30;99.90;;;;;;5077699;28;20040;-73
2022/12/05 03:21:18;;;;;;;28.55;21.73;;;5.30;99.90;;;;;;5077483;28;20040;-73
2022/12/05 03:23:54;;;;;;;26.42;20.67;;;5.30;99.90;;;;;;5077556;28;20036;-73
2022/12/05 03:26:34;;;;;;;25.50;20.08;;;5.30;99.90;;;;;;5057629;28;20040;-73
2022/12/05 03:29:05;;;;;;;26.80;20.48;;;5.30;99.90;;;;;;5056719;28;20049;-73
2022/12/05 03:32:14;;;;;;;26.50;20.42;;;5.30;99.90;;;;;;5057487;28;20075;-74
2022/12/05 03:35:07;;;;;;;32.53;21.13;;;5.30;99.90;;;;;;5014556;28;20057;-73
2022/12/05 03:37:43;;;;;;;27.98;20.70;;;5.30;99.90;;;;;;5057526;28;20350;-74
2022/12/05 03:40:18;;;;;;;28.42;20.63;;;5.80;99.90;;;;;;5067541;28;20522;-73
2022/12/05 03:42:53;;;;;;;28.45;20.88;;;5.30;99.90;;;;;;5057434;28;20040;-73
2022/12/05 03:45:27;;;;;;;28.70;20.40;;;5.20;99.90;;;;;;5057477;28;20049;-73
2022/12/05 03:48:11;;;;;;;;;;;5.20;99.90;;;;;;5057552;28;20056;-74
2022/12/05 03:50:40;;;;;;;25.50;19.05;;;5.20;99.90;;;;;;5056486;28;19916;-73
2022/12/05 03:53:30;;;;;;;27.55;20.77;;;5.30;99.90;;;;;;5056531;28;20357;-73
2022/12/05 03:56:06;;;;;;;27.95;19.67;;;5.30;99.90;;;;;;5056777;28;20033;-73
2022/12/05 03:58:56;;;;;;;27.02;19.35;;;5.30;99.90;;;;;;5039314;28;20087;-73
2022/12/05 04:01:27;;;;;;;25.17;17.92;;;5.30;99.90;;;;;;5038895;28;20044;-74
2022/12/05 04:03:58;;;;;;;24.65;19.10;;;5.40;99.90;;;;;;5056555;28;20033;-73
2022/12/05 04:06:31;;;;;;;26.45;16.88;;;5.30;99.90;;;;;;5056494;28;20434;-74
2022/12/05 04:09:01;;;;;;;22.05;16.92;;;5.30;99.90;;;;;;5056239;28;20037;-73
2022/12/05 04:11:31;;;;;;;26.02;17.40;;;5.30;99.90;;;;;;5056157;28;20033;-73
2022/12/05 04:14:14;;;;;;;23.58;16.40;;;5.40;99.90;;;;;;5056875;28;20040;-74
2022/12/05 04:17:09;;;;;;;21.83;17.05;;;5.30;99.90;;;;;;5056580;28;20047;-73
2022/12/05 04:22:37;;;;;;;21.65;16.10;;;5.30;99.90;;;;;;5056153;28;20132;-73
2022/12/05 04:28:19;;;;;;;19.92;15.35;;;5.30;99.90;;;;;;5038530;28;20059;-73
2022/12/05 04:31:29;;;;;;;21.60;16.43;;;5.30;99.90;;;;;;5056294;28;20053;-73
2022/12/05 04:34:01;;;;;;;23.77;17.05;;;5.30;99.90;;;;;;5051379;28;20106;-73
2022/12/05 04:36:35;;;;;;;23.02;16.33;;;5.30;99.90;;;;;;5056565;28;20040;-73
2022/12/05 04:39:00;;;;;;;;;;;5.30;99.90;;;;;;5056213;28;20090;-74
2022/12/05 04:41:33;;;;;;;24.13;16.42;;;5.30;99.90;;;;;;5055763;28;20004;-73
2022/12/05 04:44:04;;;;;;;22.23;16.33;;;5.40;99.90;;;;;;5056067;28;20045;-73
2022/12/05 04:46:30;;;;;;;19.73;15.70;;;5.30;99.90;;;;;;5055958;28;20051;-73
2022/12/05 04:48:59;;;;;;;25.10;16.70;;;5.30;99.90;;;;;;5055802;28;20029;-73
2022/12/05 04:51:30;;;;;;;19.23;15.98;;;5.30;99.90;;;;;;5038219;28;20147;-73
2022/12/05 04:54:07;;;;;;;21.15;15.07;;;5.30;99.90;;;;;;5055793;28;20063;-73
2022/12/05 04:56:36;;;;;;;20.27;14.02;;;5.30;99.90;;;;;;5055849;28;20037;-73
2022/12/05 04:59:03;;;;;;;20.33;14.73;;;5.30;99.90;;;;;;5056056;28;20120;-73
2022/12/05 05:01:49;;;;;;;19.92;16.58;;;5.30;99.90;;;;;;5055008;28;20128;-74
2022/12/05 05:04:49;;;;;;;20.48;15.68;;;5.30;99.90;;;;;;5055295;28;20432;-73
2022/12/05 05:07:18;;;;;;;32.15;28.50;;;5.30;99.90;;;;;;5055305;28;20044;-74
2022/12/05 05:09:44;;;;;;;20.73;15.68;;;5.30;99.90;;;;;;5055648;28;20037;-74
2022/12/05 05:12:11;;;;;;;20.92;15.20;;;5.30;99.90;;;;;;5055445;28;20111;-73
2022/12/05 05:14:36;;;;;;;21.42;15.15;;;5.30;99.90;;;;;;5055527;28;20052;-74
2022/12/05 05:17:02;;;;;;;20.08;14.80;;;5.30;99.90;;;;;;5055556;28;20041;-73
2022/12/05 05:19:29;;;;;;;24.00;16.38;;;5.30;99.90;;;;;;5055621;28;20041;-73
2022/12/05 05:21:55;;;;;;;22.42;14.63;;;5.30;99.90;;;;;;5055037;28;20029;-73
2022/12/05 05:24:22;;;;;;;21.95;16.60;;;5.30;99.90;;;;;;5055240;28;20346;-73
2022/12/05 05:26:59;;;;;;;22.23;16.17;;;5.30;99.90;;;;;;5056875;28;20086;-74
2022/12/05 05:29:25;;;;;;;20.02;15.00;;;5.30;99.90;;;;;;5013732;28;20373;-71
2022/12/05 05:31:50;;;;;;;20.58;15.88;;;5.30;99.90;;;;;;5013419;28;20057;-71
2022/12/05 05:34:19;;;;;;;21.38;15.52;;;5.30;99.90;;;;;;5013393;28;20621;-71
2022/12/05 05:36:44;;;;;;;21.65;15.75;;;5.90;99.90;;;;;;5013384;28;20145;-71
2022/12/05 05:39:13;;;;;;;21.92;15.85;;;5.30;99.90;;;;;;5013300;28;20108;-73
2022/12/05 05:41:39;;;;;;;21.45;16.27;;;5.30;99.90;;;;;;5027497;28;20073;-72
2022/12/05 05:44:05;;;;;;;19.33;14.45;;;5.30;99.90;;;;;;5032837;28;20045;-72
2022/12/05 05:46:33;;;;;;;22.30;18.20;;;5.40;99.90;;;;;;5032917;28;20060;-72
2022/12/05 05:48:59;;;;;;;28.73;19.85;;;5.40;99.90;;;;;;5032808;28;20057;-72
2022/12/05 05:51:29;;;;;;;30.63;19.73;;;5.30;99.90;;;;;;5032900;28;20132;-72
2022/12/05 05:53:56;;;;;;;23.35;15.90;;;5.70;99.90;;;;;;5044943;28;20118;-72
2022/12/05 05:56:22;;;;;;;64.40;32.20;;;5.40;99.90;;;;;;5054834;28;20163;-72
2022/12/05 05:58:58;;;;;;;39.70;23.05;;;5.40;99.90;;;;;;5055102;28;20465;-72
2022/12/05 06:01:27;;;;;;;21.88;16.13;;;5.30;99.90;;;;;;5046840;28;20415;-72
2022/12/05 06:03:52;;;;;;;21.27;15.27;;;5.40;99.90;;;;;;5053417;28;20071;-70
2022/12/05 06:06:20;;;;;;;22.08;16.50;;;5.40;99.90;;;;;;5054461;28;20060;-70
2022/12/05 06:08:46;;;;;;;28.25;17.67;;;5.40;99.90;;;;;;5036024;28;20033;-71
2022/12/05 06:11:14;;;;;;;21.30;14.90;;;5.40;99.90;;;;;;5036216;28;20053;-70
2022/12/05 06:13:40;;;;;;;21.23;14.95;;;5.40;99.90;;;;;;5056258;28;20044;-71
2022/12/05 06:16:11;;;;;;;18.95;14.02;;;5.40;99.90;;;;;;5058189;28;20037;-71
2022/12/05 06:18:37;;;;;;;20.45;15.02;;;5.40;99.90;;;;;;5058815;28;20120;-71
2022/12/05 06:21:07;;;;;;;21.20;15.80;;;5.40;99.90;;;;;;5040757;28;20179;-70
2022/12/05 06:23:33;;;;;;;18.52;13.75;;;5.40;99.90;;;;;;5058633;28;20116;-70
2022/12/05 06:25:59;;;;;;;22.15;17.27;;;5.60;99.90;;;;;;5024448;28;20115;-71
2022/12/05 06:28:27;;;;;;;16.83;13.80;;;5.40;99.90;;;;;;5058496;28;20120;-69
2022/12/05 06:30:53;;;;;;;17.60;12.75;;;5.40;99.90;;;;;;5040519;28;20045;-70
2022/12/05 06:33:20;;;;;;;17.85;13.95;;;5.40;99.90;;;;;;5057821;28;20450;-72
2022/12/05 06:35:46;;;;;;;18.60;13.52;;;5.40;99.90;;;;;;5058511;28;20041;-71
2022/12/05 06:38:11;;;;;;;17.38;13.60;;;5.40;99.90;;;;;;5058292;28;20505;-71
2022/12/05 06:40:42;;;;;;;25.38;13.93;;;5.40;99.90;;;;;;5056714;28;20195;-71
2022/12/05 06:43:08;;;;;;;36.22;15.48;;;5.40;99.90;;;;;;5058258;28;20146;-71
2022/12/05 06:45:36;;;;;;;19.35;13.63;;;5.40;99.90;;;;;;5058009;28;20037;-71
2022/12/05 06:48:01;;;;;;;18.40;13.68;;;5.40;99.90;;;;;;5057975;28;20084;-69
2022/12/05 06:50:27;;;;;;;18.80;14.48;;;5.40;99.90;;;;;;5058099;28;20080;-70
2022/12/05 06:52:52;;;;;;;23.92;15.60;;;5.40;99.90;;;;;;5058596;28;20036;-69
2022/12/05 06:55:18;;;;;;;22.25;15.65;;;5.40;99.90;;;;;;5058029;28;20061;-69
2022/12/05 06:57:49;;;;;;;77.05;16.60;;;5.40;99.90;;;;;;5057601;28;20080;-70
2022/12/05 07:02:59;;;;;;;24.48;14.75;;;5.40;99.90;;;;;;5055783;28;20057;-70
2022/12/05 07:05:25;;;;;;;20.33;14.00;;;5.40;99.90;;;;;;5057663;28;20045;-70
2022/12/05 07:07:52;;;;;;;19.10;13.80;;;5.40;99.90;;;;;;5040244;28;20048;-69
2022/12/05 07:10:17;;;;;;;21.75;14.35;;;5.40;99.90;;;;;;5057369;28;20214;-69
2022/12/05 07:12:43;;;;;;;22.95;14.18;;;5.40;99.90;;;;;;5074983;28;20369;-70
2022/12/05 07:15:09;;;;;;;20.58;14.40;;;5.40;99.90;;;;;;5065349;28;20469;-70
2022/12/05 07:17:36;;;;;;;26.42;15.48;;;5.40;99.90;;;;;;5039408;28;20045;-70
2022/12/05 07:20:03;;;;;;;20.23;13.80;;;5.40;99.90;;;;;;5057541;28;20119;-70
2022/12/05 07:22:29;;;;;;;22.42;15.05;;;5.40;99.90;;;;;;5057479;28;20382;-69
2022/12/05 07:24:54;;;;;;;25.10;14.25;;;5.40;99.90;;;;;;5056753;28;20160;-70
2022/12/05 07:27:20;;;;;;;24.65;14.77;;;5.40;99.90;;;;;;5057431;28;20442;-70
2022/12/05 07:29:45;;;;;;;21.75;15.32;;;5.50;99.90;;;;;;5056971;28;20047;-70
2022/12/05 07:32:11;;;;;;;27.17;16.45;;;5.40;99.90;;;;;;5057453;28;20037;-70
2022/12/05 07:34:37;;;;;;;26.10;15.40;;;5.50;99.90;;;;;;5057071;28;20120;-70
2022/12/05 07:37:03;;;;;;;29.40;15.82;;;5.40;99.90;;;;;;5055972;28;20416;-70
2022/12/05 07:39:29;;;;;;;24.40;15.90;;;5.50;99.90;;;;;;5056759;28;20075;-70
2022/12/05 07:41:54;;;;;;;25.92;16.40;;;5.40;99.90;;;;;;5056743;28;20048;-71
2022/12/05 07:44:20;;;;;;;29.13;17.15;;;5.40;99.90;;;;;;5056767;28;20043;-70
2022/12/05 07:46:46;;;;;;;34.33;17.13;;;5.60;99.90;;;;;;5055621;28;20216;-70
2022/12/05 07:49:11;;;;;;;29.98;17.35;;;5.40;99.90;;;;;;5057354;28;20059;-70
2022/12/05 07:51:37;;;;;;;32.50;17.75;;;5.40;99.90;;;;;;5076718;28;20037;-70
2022/12/05 07:54:03;;;;;;;26.25;18.00;;;5.40;99.90;;;;;;5059124;28;20048;-72
2022/12/05 07:56:29;;;;;;;32.20;18.70;;;5.40;99.90;;;;;;5066235;28;20041;-70
2022/12/05 07:58:57;;;;;;;31.30;17.98;;;5.40;99.90;;;;;;5070064;28;20119;-70
2022/12/05 08:01:26;;;;;;;29.67;17.65;;;5.40;99.90;;;;;;5066151;28;20060;-70
2022/12/05 08:03:54;;;;;;;29.98;17.20;;;5.40;99.90;;;;;;5064257;28;20101;-70
2022/12/05 08:06:22;;;;;;;28.33;17.27;;;5.40;99.90;;;;;;5058613;28;20053;-70
2022/12/05 08:08:49;;;;;;;25.08;15.25;;;5.50;99.90;;;;;;5056123;28;20040;-70
2022/12/05 08:11:23;;;;;;;31.73;17.08;;;5.40;99.90;;;;;;5056368;28;20348;-70
2022/12/05 08:13:50;;;;;;;28.17;16.35;;;5.40;99.90;;;;;;5056282;28;20464;-70
2022/12/05 08:16:21;;;;;;;26.17;16.00;;;5.40;99.90;;;;;;5055792;28;20059;-70
2022/12/05 08:18:53;;;;;;;27.55;16.52;;;5.70;99.90;;;;;;5056301;28;20110;-71
2022/12/05 08:21:19;;;;;;;30.85;16.63;;;5.50;99.90;;;;;;5038591;28;20392;-71
2022/12/05 08:23:45;;;;;;;24.70;15.32;;;5.50;99.90;;;;;;5056363;28;20116;-70
2022/12/05 08:26:14;;;;;;;23.75;14.63;;;5.40;99.90;;;;;;5056075;28;20420;-70
2022/12/05 08:28:40;;;;;;;27.23;16.38;;;5.50;99.90;;;;;;5055996;28;20066;-71
2022/12/05 08:31:09;;;;;;;27.05;16.13;;;5.50;99.90;;;;;;5055681;28;20112;-71
2022/12/05 08:33:35;;;;;;;29.77;15.68;;;5.40;99.90;;;;;;5038336;28;20079;-71
2022/12/05 08:36:12;;;;;;;24.98;15.60;;;5.50;99.90;;;;;;5055985;28;20464;-71
2022/12/05 08:38:38;;;;;;;80.38;18.17;;;5.50;99.90;;;;;;5055983;28;20084;-71
2022/12/05 08:41:06;;;;;;;25.80;15.60;;;5.50;99.90;;;;;;5055627;28;20088;-70
2022/12/05 08:43:32;;;;;;;24.75;15.48;;;5.50;99.90;;;;;;5055273;28;20098;-71
2022/12/05 08:45:58;;;;;;;22.23;15.93;;;5.40;99.90;;;;;;5054575;28;20049;-71
2022/12/05 08:48:26;;;;;;;21.38;15.15;;;5.40;99.90;;;;;;5054359;28;20087;-71
2022/12/05 08:50:58;;;;;;;21.23;14.82;;;5.50;99.90;;;;;;5055111;28;20449;-70
2022/12/05 08:53:24;;;;;;;23.77;15.82;;;5.50;99.90;;;;;;5055498;28;20063;-70
2022/12/05 08:55:50;;;;;;;24.77;15.20;;;5.40;99.90;;;;;;5054539;28;20052;-71
2022/12/05 08:58:15;;;;;;;22.42;15.52;;;5.40;99.90;;;;;;5055616;28;20093;-70
2022/12/05 09:00:42;;;;;;;23.48;15.45;;;5.50;99.90;;;;;;5055211;28;20480;-70
2022/12/05 09:03:09;;;;;;;21.90;15.68;;;5.50;99.90;;;;;;5055517;28;20080;-70
2022/12/05 09:05:35;;;;;;;25.70;17.15;;;5.50;99.90;;;;;;5037544;28;20057;-71
2022/12/05 09:08:01;;;;;;;32.65;29.10;;;5.50;99.90;;;;;;5055251;28;20461;-71
2022/12/05 09:10:26;;;;;;;34.78;27.30;;;6.10;99.90;;;;;;5055343;28;20380;-71
2022/12/05 09:12:52;;;;;;;24.50;17.65;;;5.50;99.90;;;;;;5037742;28;20102;-71
2022/12/05 09:15:18;;;;;;;38.45;20.23;;;5.50;99.90;;;;;;5054797;28;20045;-70
2022/12/05 09:17:44;;;;;;;26.85;17.60;;;5.50;99.90;;;;;;5055214;28;20487;-71
2022/12/05 09:20:12;;;;;;;27.38;19.02;;;5.50;99.90;;;;;;5055026;28;20449;-70
2022/12/05 09:22:39;;;;;;;25.08;18.45;;;5.50;99.90;;;;;;5054885;28;20056;-70
2022/12/05 09:25:05;;;;;;;24.50;17.67;;;5.50;99.90;;;;;;5055117;28;20057;-71
2022/12/05 09:27:31;;;;;;;25.75;18.02;;;5.50;99.90;;;;;;5055048;28;20420;-71
2022/12/05 09:29:56;;;;;;;24.25;16.75;;;5.50;99.90;;;;;;5054675;28;20045;-71
2022/12/05 09:32:22;;;;;;;22.38;15.65;;;5.50;99.90;;;;;;5055033;28;20091;-71
2022/12/05 09:34:47;;;;;;;21.58;15.10;;;5.50;99.90;;;;;;5054637;28;20061;-71
2022/12/05 09:37:13;;;;;;;22.90;15.68;;;5.50;99.90;;;;;;5055058;28;20124;-70
2022/12/05 09:39:38;;;;;;;23.20;15.93;;;5.50;99.90;;;;;;5055095;28;20342;-70
2022/12/05 09:42:31;;;;;;;22.65;15.13;;;5.50;99.90;;;;;;5070101;28;20056;-71
2022/12/05 09:45:10;;;;;;;23.13;16.13;;;5.50;99.90;;;;;;5074372;28;20044;-71
2022/12/05 09:47:59;;;;;;;41.92;35.60;;;5.50;99.90;;;;;;5074521;28;20056;-71
2022/12/05 09:50:29;;;;;;;31.35;25.58;;;5.50;99.90;;;;;;5074821;28;20480;-71
2022/12/05 09:53:08;;;;;;;21.15;15.93;;;5.50;99.90;;;;;;5074886;28;20044;-70
2022/12/05 09:56:00;;;;;;;28.52;21.65;;;5.50;99.90;;;;;;5074911;28;20045;-70
2022/12/05 09:58:37;;;;;;;27.52;19.92;;;5.50;99.90;;;;;;5074323;28;20124;-70
2022/12/05 10:01:30;;;;;;;26.35;15.40;;;5.50;99.90;;;;;;5054505;28;20045;-70
2022/12/05 10:04:45;;;;;;;26.23;18.02;;;5.60;99.90;;;;;;5054599;28;20407;-71
2022/12/05 10:07:24;;;;;;;19.67;14.13;;;5.50;99.90;;;;;;5054558;28;20071;-68
2022/12/05 10:10:19;;;;;;;23.67;14.77;;;5.50;99.90;;;;;;5054683;28;20119;-70
2022/12/05 10:13:23;;;;;;;23.23;14.50;;;5.50;99.90;;;;;;5056885;28;20037;-69
2022/12/05 10:15:55;;;;;;;22.88;16.02;;;5.50;99.90;;;;;;5072036;28;20177;-69
2022/12/05 10:18:49;;;;;;;24.17;16.13;;;5.50;99.90;;;;;;5073321;28;20051;-70
2022/12/05 10:21:24;;;;;;;24.85;15.45;;;5.50;99.90;;;;;;5073571;28;20093;-70
2022/12/05 10:23:54;;;;;;;19.88;14.45;;;5.50;99.90;;;;;;5073181;28;20052;-69
2022/12/05 10:26:25;;;;;;;25.02;15.88;;;5.50;99.90;;;;;;5074318;28;20072;-70
2022/12/05 10:29:28;;;;;;;23.20;15.15;;;5.50;99.90;;;;;;5074189;28;20041;-69
2022/12/05 10:32:04;;;;;;;21.25;13.30;;;5.50;99.90;;;;;;5074151;28;20051;-71
2022/12/05 10:34:41;;;;;;;22.27;14.32;;;5.50;99.90;;;;;;5074222;28;20048;-70
2022/12/05 10:37:20;;;;;;;23.10;16.08;;;5.50;99.90;;;;;;5074290;28;20457;-70
2022/12/05 10:39:50;;;;;;;22.08;16.50;;;5.60;99.90;;;;;;5073449;28;20051;-71
2022/12/05 10:42:28;;;;;;;22.17;14.82;;;5.60;99.90;;;;;;5055485;28;20471;-70
2022/12/05 10:44:57;;;;;;;20.98;16.00;;;5.60;99.90;;;;;;5036075;28;20056;-70
2022/12/05 10:47:26;;;;;;;22.83;13.55;;;5.60;99.90;;;;;;5054159;28;20080;-71
2022/12/05 10:49:54;;;;;;;17.27;12.43;;;6.00;99.90;;;;;;5055885;28;20076;-71
2022/12/05 10:52:20;;;;;;;16.27;12.75;;;5.60;99.90;;;;;;5054284;28;20044;-70
2022/12/05 10:54:53;;;;;;;48.15;12.45;;;5.60;99.90;;;;;;5053919;28;20037;-70
2022/12/05 10:57:22;;;;;;;15.45;11.77;;;5.60;99.90;;;;;;5053830;28;20041;-70
2022/12/05 10:59:47;;;;;;;17.45;11.65;;;5.60;99.90;;;;;;5053747;28;20041;-70
2022/12/05 11:02:33;;;;;;;17.92;12.13;;;5.60;99.90;;;;;;5058000;28;20511;-71
2022/12/05 11:04:58;;;;;;;17.60;11.77;;;5.70;99.90;;;;;;5059665;28;20109;-69
2022/12/05 11:07:34;;;;;;;20.60;13.20;;;5.70;99.90;;;;;;5077491;28;20466;-69
2022/12/05 11:10:16;;;;;;;16.17;12.20;;;5.70;99.90;;;;;;5059802;28;20123;-70
2022/12/05 11:12:42;;;;;;;19.23;13.85;;;5.70;99.90;;;;;;5042987;28;20063;-70
2022/12/05 11:15:23;;;;;;;17.83;12.75;;;5.70;99.90;;;;;;5061284;28;20037;-69
2022/12/05 11:17:53;;;;;;;18.00;12.60;;;5.60;99.90;;;;;;5041477;28;20040;-70
2022/12/05 11:20:22;;;;;;;20.40;13.82;;;5.70;99.90;;;;;;5057363;28;20052;-70
2022/12/05 11:22:53;;;;;;;19.48;13.90;;;5.60;99.90;;;;;;5057420;28;20379;-70
2022/12/05 11:25:34;;;;;;;22.33;15.10;;;5.60;99.90;;;;;;5058646;28;20139;-69
2022/12/05 11:28:20;;;;;;;20.60;15.20;;;5.70;99.90;;;;;;5057099;28;20033;-70
2022/12/05 11:31:01;;;;;;;22.58;15.80;;;5.70;99.90;;;;;;5056865;28;20041;-70
2022/12/05 11:33:30;;;;;;;23.33;16.52;;;5.70;99.90;;;;;;5039717;28;20037;-69
2022/12/05 11:36:03;;;;;;;24.63;15.93;;;5.60;99.90;;;;;;5057219;28;20468;-69
2022/12/05 11:38:31;;;;;;;23.48;15.25;;;5.60;99.90;;;;;;5057088;28;20465;-69
2022/12/05 11:41:15;;;;;;;23.33;15.57;;;5.60;99.90;;;;;;5058753;28;20052;-69
2022/12/05 11:44:09;;;;;;;22.88;15.35;;;5.60;99.90;;;;;;5060086;28;20258;-68
2022/12/05 11:46:56;;;;;;;23.50;16.15;;;5.60;99.90;;;;;;5068966;28;20357;-68
2022/12/05 11:49:33;;;;;;;26.08;18.45;;;5.60;99.90;;;;;;5056838;28;20084;-69
2022/12/05 11:52:07;;;;;;;23.15;18.23;;;5.60;99.90;;;;;;5057142;28;20051;-69
2022/12/05 11:55:00;;;;;;;27.67;17.90;;;5.60;99.90;;;;;;5061490;28;20044;-69
2022/12/05 11:57:43;;;;;;;20.80;14.80;;;5.60;99.90;;;;;;5070713;28;20048;-69
2022/12/05 12:00:11;;;;;;;22.00;13.88;;;5.60;99.90;;;;;;5047964;28;20290;-70
2022/12/05 12:02:40;;;;;;;27.38;15.63;;;5.60;99.90;;;;;;5076667;28;20494;-69
2022/12/05 12:05:40;;;;;;;22.88;14.25;;;5.60;99.90;;;;;;5051626;28;20364;-69
2022/12/05 12:08:14;;;;;;;23.35;14.73;;;5.60;99.90;;;;;;5056533;28;20378;-70
2022/12/05 12:10:49;;;;;;;21.08;12.85;;;5.50;99.90;;;;;;5056188;28;20037;-70
2022/12/05 12:13:36;;;;;;;17.58;12.15;;;5.60;99.90;;;;;;5056583;28;20041;-70
2022/12/05 12:16:07;;;;;;;27.40;13.50;;;5.60;99.90;;;;;;5056438;28;20045;-69
2022/12/05 12:18:46;;;;;;;20.45;13.50;;;5.60;99.90;;;;;;5056115;28;20044;-69
2022/12/05 12:21:29;;;;;;;39.75;14.40;;;5.60;99.90;;;;;;5055866;28;20055;-70
2022/12/05 12:24:32;;;;;;;20.52;12.93;;;5.60;99.90;;;;;;5063817;28;20075;-70
2022/12/05 12:27:28;;;;;;;21.10;13.32;;;5.60;99.90;;;;;;5055912;28;20127;-70
2022/12/05 12:30:11;;;;;;;22.00;12.48;;;5.60;99.90;;;;;;5056079;28;20051;-70
2022/12/05 12:32:49;;;;;;;22.20;11.93;;;5.60;99.90;;;;;;5056224;28;20097;-70
2022/12/05 12:35:55;;;;;;;22.08;12.43;;;5.60;99.90;;;;;;5055562;28;20408;-70
2022/12/05 12:38:30;;;;;;;19.67;13.57;;;5.50;99.90;;;;;;5056067;28;20041;-70
2022/12/05 12:41:08;;;;;;;21.55;13.52;;;5.60;99.90;;;;;;5055518;28;20461;-71
2022/12/05 12:44:00;;;;;;;44.53;24.77;;;5.60;99.90;;;;;;5055979;28;20136;-71
2022/12/05 12:49:32;;;;;;;22.70;14.85;;;5.60;99.90;;;;;;5014211;28;20115;-70
2022/12/05 12:52:27;;;;;;;24.67;16.08;;;5.50;99.90;;;;;;5016080;28;20053;-71
2022/12/05 12:54:52;;;;;;;16.98;13.80;;;5.60;99.90;;;;;;5011965;28;20049;-71
2022/12/05 12:57:46;;;;;;;18.48;14.10;;;5.60;99.90;;;;;;5016066;28;20136;-70
2022/12/05 13:00:22;;;;;;;20.92;13.70;;;5.60;99.90;;;;;;5015374;28;20354;-70
2022/12/05 13:02:59;;;;;;;20.38;14.25;;;5.60;99.90;;;;;;5015358;28;20042;-71
2022/12/05 13:05:46;;;;;;;47.42;38.85;;;5.70;99.90;;;;;;5014927;28;20076;-69
2022/12/05 13:08:23;;;;;;;22.70;13.60;;;5.60;99.90;;;;;;5015794;28;20096;-70
2022/12/05 13:10:50;;;;;;;19.05;14.63;;;5.60;99.90;;;;;;5015417;28;20466;-70
2022/12/05 13:13:20;;;;;;;17.17;12.98;;;5.60;99.90;;;;;;5015676;28;20049;-69
2022/12/05 13:15:50;;;;;;;20.17;13.18;;;5.60;99.90;;;;;;5015955;28;20116;-70